createdAt,value
2022-10-20T00:01:46.273Z,9.43
2022-10-20T00:04:16.701Z,9.38
2022-10-20T00:06:45.968Z,9.20
2022-10-20T00:09:15.344Z,9.49
2022-10-20T00:11:46.031Z,9.43
2022-10-20T00:14:15.121Z,9.39
2022-10-20T00:16:44.507Z,9.55
2022-10-20T00:19:15.603Z,9.61
2022-10-20T00:21:44.877Z,9.56
2022-10-20T00:24:14.081Z,9.51
2022-10-20T00:26:43.303Z,9.43
2022-10-20T00:29:12.520Z,9.53
2022-10-20T00:31:41.875Z,9.60
2022-10-20T00:34:11.065Z,9.42
2022-10-20T00:36:42.170Z,9.53
2022-10-20T00:39:11.369Z,9.47
2022-10-20T00:41:40.734Z,9.50
2022-10-20T00:44:42.199Z,9.49
2022-10-20T00:47:14.326Z,9.58
2022-10-20T00:49:43.698Z,9.62
2022-10-20T00:52:14.997Z,9.65
2022-10-20T00:54:44.272Z,9.63
2022-10-20T00:57:14.617Z,9.61
2022-10-20T00:59:43.739Z,9.55
2022-10-20T01:02:13.454Z,9.61
2022-10-20T01:04:43.525Z,9.67
2022-10-20T01:07:14.165Z,9.44
2022-10-20T01:09:43.691Z,9.63
2022-10-20T01:12:23.844Z,9.50
2022-10-20T01:15:03.379Z,9.75
2022-10-20T01:17:41.977Z,9.65
2022-10-20T01:20:34.103Z,9.64
2022-10-20T01:23:55.846Z,9.82
2022-10-20T01:26:49.740Z,9.73
2022-10-20T01:29:28.630Z,9.78
2022-10-20T01:32:08.835Z,9.73
2022-10-20T01:34:50.626Z,9.86
2022-10-20T01:37:40.733Z,9.72
2022-10-20T01:40:23.776Z,9.74
2022-10-20T01:42:56.194Z,9.81
2022-10-20T01:45:31.720Z,9.91
2022-10-20T01:48:04.097Z,9.79
2022-10-20T01:50:35.867Z,9.76
2022-10-20T01:53:05.380Z,9.66
2022-10-20T01:55:35.798Z,9.61
2022-10-20T01:58:26.543Z,9.64
2022-10-20T02:01:07.311Z,9.72
2022-10-20T02:03:46.573Z,9.75
2022-10-20T02:06:26.039Z,9.81
2022-10-20T02:08:59.924Z,9.68
2022-10-20T02:11:37.833Z,9.49
2022-10-20T02:14:08.976Z,9.28
2022-10-20T02:16:44.197Z,9.29
2022-10-20T02:19:15.567Z,9.26
2022-10-20T02:21:45.526Z,9.07
2022-10-20T02:24:17.117Z,9.16
2022-10-20T02:26:46.801Z,9.05
2022-10-20T02:29:18.300Z,8.94
2022-10-20T02:36:49.306Z,8.66
2022-10-20T02:39:18.447Z,8.47
2022-10-20T02:41:47.667Z,8.42
2022-10-20T02:44:16.879Z,8.28
2022-10-20T02:46:46.109Z,8.26
2022-10-20T02:49:15.168Z,8.23
2022-10-20T02:51:44.554Z,8.16
2022-10-20T02:54:14.992Z,8.09
2022-10-20T02:56:44.407Z,8.00
2022-10-20T02:59:16.885Z,8.09
2022-10-20T03:01:46.427Z,7.95
2022-10-20T03:04:16.609Z,7.95
2022-10-20T03:06:46.222Z,7.92
2022-10-20T03:09:16.656Z,7.89
2022-10-20T03:11:46.058Z,7.72
2022-10-20T03:14:15.260Z,7.85
2022-10-20T03:16:44.631Z,7.80
2022-10-20T03:19:13.870Z,7.79
2022-10-20T03:21:43.222Z,7.72
2022-10-20T03:24:12.411Z,7.78
2022-10-20T03:26:43.146Z,7.79
2022-10-20T03:29:12.208Z,7.73
2022-10-20T03:31:41.591Z,7.68
2022-10-20T03:34:10.657Z,7.82
2022-10-20T03:36:40.004Z,7.79
2022-10-20T03:39:09.131Z,7.78
2022-10-20T03:41:38.419Z,7.82
2022-10-20T03:44:09.163Z,7.89
2022-10-20T03:46:38.580Z,8.00
2022-10-20T03:49:07.665Z,8.04
2022-10-20T03:51:36.937Z,8.17
2022-10-20T03:54:06.079Z,8.13
2022-10-20T03:56:35.401Z,8.09
2022-10-20T04:01:40.433Z,8.03
2022-10-20T04:04:09.667Z,8.27
2022-10-20T04:06:39.278Z,8.20
2022-10-20T04:09:08.695Z,8.20
2022-10-20T04:11:38.033Z,8.34
2022-10-20T04:14:07.069Z,8.50
2022-10-20T04:16:36.331Z,8.32
2022-10-20T04:19:07.066Z,8.49
2022-10-20T04:21:36.345Z,8.33
2022-10-20T04:24:07.312Z,8.50
2022-10-20T04:26:36.573Z,8.67
2022-10-20T04:29:05.665Z,8.66
2022-10-20T04:31:34.917Z,8.82
2022-10-20T04:34:05.548Z,8.78
2022-10-20T04:36:34.900Z,8.68
2022-10-20T04:39:06.441Z,8.66
2022-10-20T04:41:36.339Z,8.62
2022-10-20T04:44:05.669Z,8.66
2022-10-20T04:46:35.015Z,8.71
2022-10-20T04:49:05.701Z,8.69
2022-10-20T04:51:35.058Z,8.86
2022-10-20T04:56:34.621Z,8.88
2022-10-20T04:59:05.686Z,8.71
2022-10-20T05:01:36.711Z,8.74
2022-10-20T05:04:07.300Z,8.78
2022-10-20T05:06:36.555Z,8.81
2022-10-20T05:09:07.672Z,8.59
2022-10-20T05:11:38.095Z,8.63
2022-10-20T05:14:07.763Z,8.49
2022-10-20T05:16:37.050Z,8.59
2022-10-20T05:19:07.465Z,8.52
2022-10-20T05:21:36.785Z,8.49
2022-10-20T05:24:07.165Z,8.48
2022-10-20T05:26:37.609Z,8.48
2022-10-20T05:29:09.238Z,8.40
2022-10-20T05:31:39.686Z,8.43
2022-10-20T05:34:10.881Z,8.27
2022-10-20T05:36:40.442Z,8.31
2022-10-20T05:39:10.880Z,8.27
2022-10-20T05:41:40.969Z,8.18
2022-10-20T05:44:14.269Z,8.23
2022-10-20T05:46:43.661Z,8.09
2022-10-20T05:49:16.802Z,8.21
2022-10-20T05:51:47.571Z,8.37
2022-10-20T05:54:17.141Z,8.33
2022-10-20T05:56:46.742Z,8.28
2022-10-20T05:59:16.031Z,8.36
2022-10-20T06:01:52.916Z,8.42
2022-10-20T06:04:24.669Z,8.55
2022-10-20T06:06:55.127Z,8.22
2022-10-20T06:09:25.396Z,8.39
2022-10-20T06:11:55.091Z,8.43
2022-10-20T06:14:25.954Z,8.51
2022-10-20T06:16:56.906Z,8.44
2022-10-20T06:19:27.779Z,8.41
2022-10-20T06:21:57.099Z,8.49
2022-10-20T06:24:26.243Z,8.39
2022-10-20T06:26:55.617Z,8.32
2022-10-20T06:29:24.749Z,8.22
2022-10-20T06:31:56.026Z,8.24
2022-10-20T06:34:27.734Z,8.20
2022-10-20T06:36:57.201Z,8.28
2022-10-20T06:39:26.578Z,8.24
2022-10-20T06:42:06.851Z,8.31
2022-10-20T06:44:37.405Z,8.39
2022-10-20T06:47:10.123Z,8.43
2022-10-20T06:49:40.723Z,8.47
2022-10-20T06:54:45.551Z,8.52
2022-10-20T06:57:14.892Z,8.59
2022-10-20T06:59:43.950Z,8.64
2022-10-20T07:02:13.518Z,8.82
2022-10-20T07:04:44.302Z,8.78
2022-10-20T07:07:14.004Z,9.05
2022-10-20T07:09:43.328Z,9.11
2022-10-20T07:12:12.642Z,9.16
2022-10-20T07:14:41.784Z,9.26
2022-10-20T07:17:11.103Z,9.40
2022-10-20T07:19:40.119Z,9.55
2022-10-20T07:22:10.863Z,9.75
2022-10-20T07:24:39.961Z,9.85
2022-10-20T07:27:09.298Z,9.89
2022-10-20T07:29:39.193Z,10.08
2022-10-20T07:32:08.469Z,10.15
2022-10-20T07:34:37.634Z,10.45
2022-10-20T07:37:06.962Z,10.40
2022-10-20T07:39:37.414Z,10.60
2022-10-20T07:42:06.810Z,10.74
2022-10-20T07:44:36.287Z,10.90
2022-10-20T07:47:05.600Z,11.06
2022-10-20T07:49:50.233Z,11.23
2022-10-20T07:52:19.602Z,11.26
2022-10-20T07:54:50.328Z,11.49
2022-10-20T07:57:19.851Z,11.53
2022-10-20T07:59:49.065Z,11.76
2022-10-20T08:02:20.801Z,11.93
2022-10-20T08:04:49.926Z,12.15
2022-10-20T08:07:19.453Z,12.17
2022-10-20T08:09:49.876Z,12.18
2022-10-20T08:12:19.256Z,12.16
2022-10-20T08:14:50.751Z,12.33
2022-10-20T08:17:20.591Z,12.62
2022-10-20T08:22:45.027Z,12.46
2022-10-20T08:25:16.905Z,12.63
2022-10-20T08:27:46.219Z,12.76
2022-10-20T08:30:24.110Z,12.87
2022-10-20T08:32:54.008Z,12.82
2022-10-20T08:35:23.806Z,13.10
2022-10-20T08:37:53.263Z,13.05
2022-10-20T08:40:27.243Z,12.94
2022-10-20T08:42:57.497Z,13.34
2022-10-20T08:45:29.247Z,13.90
2022-10-20T08:48:01.273Z,13.58
2022-10-20T08:50:32.262Z,13.83
2022-10-20T08:53:02.524Z,13.45
2022-10-20T08:55:34.840Z,13.91
2022-10-20T08:58:06.671Z,14.49
2022-10-20T09:00:39.522Z,14.40
2022-10-20T09:03:17.327Z,14.77
2022-10-20T09:05:50.561Z,14.82
2022-10-20T09:08:31.609Z,14.69
2022-10-20T09:11:03.265Z,14.85
2022-10-20T09:13:34.895Z,15.25
2022-10-20T09:16:08.904Z,15.51
2022-10-20T09:18:38.451Z,15.65
2022-10-20T09:21:14.186Z,15.65
2022-10-20T09:23:45.905Z,15.77
2022-10-20T09:26:37.673Z,15.77
2022-10-20T09:29:14.714Z,16.69
2022-10-20T09:31:46.392Z,16.83
2022-10-20T09:34:24.849Z,16.93
2022-10-20T09:36:59.350Z,17.55
2022-10-20T09:39:33.339Z,17.62
2022-10-20T09:42:08.203Z,17.92
2022-10-20T09:44:48.957Z,19.17
2022-10-20T09:47:18.979Z,19.79
2022-10-20T09:49:48.601Z,20.67
2022-10-20T09:52:23.777Z,20.61
2022-10-20T09:54:57.250Z,21.41
2022-10-20T09:57:27.977Z,21.60
2022-10-20T10:00:01.390Z,21.07
2022-10-20T10:02:38.313Z,20.56
2022-10-20T10:05:20.498Z,20.88
2022-10-20T10:08:00.340Z,19.56
2022-10-20T10:10:31.546Z,18.25
2022-10-20T10:15:40.262Z,16.41
2022-10-20T10:18:15.917Z,15.23
2022-10-20T10:20:45.970Z,15.41
2022-10-20T10:23:23.999Z,15.30
2022-10-20T10:25:57.870Z,15.14
2022-10-20T10:28:35.132Z,15.19
2022-10-20T10:31:25.691Z,15.00
2022-10-20T10:34:11.192Z,14.77
2022-10-20T10:36:40.953Z,14.58
2022-10-20T10:39:14.971Z,14.72
2022-10-20T10:42:08.909Z,15.04
2022-10-20T10:44:53.370Z,15.78
2022-10-20T10:47:43.763Z,16.72
2022-10-20T10:50:32.227Z,21.04
2022-10-20T10:53:14.551Z,25.60
2022-10-20T10:55:52.209Z,26.64
2022-10-20T10:58:35.638Z,21.60
2022-10-20T11:01:20.340Z,21.63
2022-10-20T11:04:14.145Z,18.87
2022-10-20T11:06:54.261Z,17.21
2022-10-20T11:09:33.360Z,15.96
2022-10-20T11:12:28.062Z,16.56
2022-10-20T11:15:13.818Z,16.17
2022-10-20T11:17:56.953Z,17.25
2022-10-20T11:20:39.240Z,20.35
2022-10-20T11:23:40.069Z,25.71
2022-10-20T11:26:18.796Z,27.42
2022-10-20T11:28:51.223Z,31.44
2022-10-20T11:31:30.932Z,30.91
2022-10-20T11:34:06.991Z,31.16
2022-10-20T11:36:40.302Z,31.18
2022-10-20T11:39:18.598Z,25.96
2022-10-20T11:41:51.469Z,26.98
2022-10-20T11:44:28.796Z,29.25
2022-10-20T11:47:04.808Z,28.61
2022-10-20T11:49:35.956Z,27.95
2022-10-20T11:52:51.551Z,28.59
2022-10-20T11:55:44.172Z,24.92
2022-10-20T11:58:30.598Z,24.01
2022-10-20T12:01:16.481Z,20.48
2022-10-20T12:04:17.434Z,18.43
2022-10-20T12:07:13.102Z,18.95
2022-10-20T12:10:12.099Z,18.59
2022-10-20T12:12:49.359Z,19.20
2022-10-20T12:15:24.876Z,21.24
2022-10-20T12:17:55.698Z,23.56
2022-10-20T12:20:54.066Z,25.99
2022-10-20T12:24:07.654Z,29.66
2022-10-20T12:27:01.321Z,31.03
2022-10-20T12:30:11.579Z,29.62
2022-10-20T12:33:16.848Z,30.05
2022-10-20T12:36:01.877Z,30.12
2022-10-20T12:38:32.783Z,30.69
2022-10-20T12:41:04.265Z,29.87
2022-10-20T12:43:53.242Z,29.07
2022-10-20T12:46:27.018Z,28.94
2022-10-20T12:49:00.966Z,28.20
2022-10-20T12:51:37.312Z,27.39
2022-10-20T12:54:19.102Z,25.85
2022-10-20T12:56:50.628Z,27.71
2022-10-20T12:59:37.343Z,29.52
2022-10-20T13:02:50.536Z,29.66
2022-10-20T13:05:54.596Z,26.63
2022-10-20T13:08:30.085Z,27.83
2022-10-20T13:11:43.067Z,28.17
2022-10-20T13:14:43.043Z,29.43
2022-10-20T13:17:29.687Z,28.87
2022-10-20T13:20:05.241Z,27.07
2022-10-20T13:22:43.167Z,27.90
2022-10-20T13:25:35.250Z,27.66
2022-10-20T13:28:18.379Z,28.31
2022-10-20T13:31:14.831Z,26.23
2022-10-20T13:34:04.667Z,27.05
2022-10-20T13:36:51.511Z,26.48
2022-10-20T13:39:25.448Z,26.49
2022-10-20T13:42:05.577Z,26.89
2022-10-20T13:44:47.326Z,27.33
2022-10-20T13:47:39.389Z,26.48
2022-10-20T13:50:13.425Z,26.17
2022-10-20T13:52:47.013Z,24.88
2022-10-20T13:55:23.614Z,23.55
2022-10-20T13:57:56.396Z,25.98
2022-10-20T14:00:29.096Z,25.34
2022-10-20T14:03:02.511Z,26.33
2022-10-20T14:05:37.990Z,25.46
2022-10-20T14:08:11.688Z,26.50
2022-10-20T14:10:46.248Z,25.28
2022-10-20T14:13:17.890Z,24.41
2022-10-20T14:15:51.165Z,23.39
2022-10-20T14:18:25.892Z,22.17
2022-10-20T14:21:02.890Z,21.44
2022-10-20T14:23:38.007Z,22.28
2022-10-20T14:26:13.590Z,22.06
2022-10-20T14:28:44.905Z,21.48
2022-10-20T14:31:14.980Z,21.23
2022-10-20T14:33:48.218Z,21.82
2022-10-20T14:36:22.038Z,20.78
2022-10-20T14:38:53.461Z,21.39
2022-10-20T14:41:28.601Z,20.90
2022-10-20T14:44:05.162Z,21.64
2022-10-20T14:46:38.411Z,22.24
2022-10-20T14:49:17.609Z,20.95
2022-10-20T14:51:55.742Z,19.77
2022-10-20T14:57:20.002Z,18.14
2022-10-20T14:59:59.294Z,18.64
2022-10-20T15:02:31.531Z,18.39
2022-10-20T15:05:23.574Z,17.17
2022-10-20T15:07:53.362Z,15.94
2022-10-20T15:10:25.949Z,15.17
2022-10-20T15:12:56.953Z,14.55
2022-10-20T15:15:29.029Z,14.06
2022-10-20T15:18:14.997Z,13.96
2022-10-20T15:20:46.434Z,13.84
2022-10-20T15:23:17.750Z,13.55
2022-10-20T15:25:53.373Z,13.23
2022-10-20T15:28:38.958Z,12.88
2022-10-20T15:31:17.306Z,12.56
2022-10-20T15:33:47.323Z,12.28
2022-10-20T15:36:21.947Z,12.14
2022-10-20T15:38:52.068Z,11.95
2022-10-20T15:41:23.396Z,11.71
2022-10-20T15:43:52.985Z,11.65
2022-10-20T15:46:23.122Z,11.56
2022-10-20T15:48:52.652Z,11.30
2022-10-20T15:51:27.011Z,11.26
2022-10-20T15:53:56.690Z,10.97
2022-10-20T15:56:26.333Z,10.79
2022-10-20T15:58:56.021Z,10.71
2022-10-20T16:01:25.475Z,10.54
2022-10-20T16:03:55.881Z,10.53
2022-10-20T16:06:26.704Z,10.33
2022-10-20T16:08:56.453Z,10.24
2022-10-20T16:11:25.869Z,10.13
2022-10-20T16:13:55.311Z,10.07
2022-10-20T16:16:24.673Z,9.86
2022-10-20T16:18:54.115Z,9.95
2022-10-20T16:21:23.333Z,9.67
2022-10-20T16:23:54.213Z,9.75
2022-10-20T16:26:23.486Z,9.56
2022-10-20T16:28:53.098Z,9.51
2022-10-20T16:31:22.415Z,9.56
2022-10-20T16:33:51.921Z,9.56
2022-10-20T16:36:21.832Z,9.44
2022-10-20T16:38:58.500Z,9.33
2022-10-20T16:41:27.788Z,9.20
2022-10-20T16:44:00.862Z,9.30
2022-10-20T16:46:30.471Z,9.19
2022-10-20T16:48:59.978Z,8.98
2022-10-20T16:51:29.406Z,9.00
2022-10-20T16:54:03.240Z,9.02
2022-10-20T16:56:33.024Z,9.00
2022-10-20T16:59:02.892Z,8.92
2022-10-20T17:01:33.047Z,8.89
2022-10-20T17:04:02.537Z,8.82
2022-10-20T17:06:31.840Z,8.79
2022-10-20T17:09:02.871Z,8.82
2022-10-20T17:11:33.589Z,8.44
2022-10-20T17:14:03.110Z,8.24
2022-10-20T17:16:34.514Z,8.17
2022-10-20T17:19:04.823Z,8.37
2022-10-20T17:21:35.617Z,8.23
2022-10-20T17:24:10.470Z,8.08
2022-10-20T17:26:41.387Z,7.91
2022-10-20T17:29:11.399Z,7.95
2022-10-20T17:31:41.231Z,7.93
2022-10-20T17:34:11.530Z,8.02
2022-10-20T17:36:40.917Z,8.01
2022-10-20T17:39:17.129Z,7.93
2022-10-20T17:41:47.799Z,7.82
2022-10-20T17:44:31.444Z,7.80
2022-10-20T17:47:01.692Z,7.52
2022-10-20T17:49:31.282Z,7.55
2022-10-20T17:52:00.699Z,7.72
2022-10-20T17:54:31.788Z,7.78
2022-10-20T17:57:01.253Z,7.57
2022-10-20T17:59:34.838Z,7.63
2022-10-20T18:02:12.291Z,7.67
2022-10-20T18:04:41.803Z,7.54
2022-10-20T18:07:11.216Z,7.39
2022-10-20T18:09:43.452Z,7.40
2022-10-20T18:12:14.459Z,7.48
2022-10-20T18:14:44.069Z,7.51
2022-10-20T18:17:13.808Z,7.21
2022-10-20T18:19:43.384Z,7.27
2022-10-20T18:22:12.676Z,7.24
2022-10-20T18:24:43.628Z,7.26
2022-10-20T18:27:13.889Z,7.14
2022-10-20T18:29:44.541Z,7.20
2022-10-20T18:32:14.171Z,7.04
2022-10-20T18:34:44.215Z,7.07
2022-10-20T18:37:17.714Z,7.10
2022-10-20T18:39:48.633Z,7.10
2022-10-20T18:42:18.768Z,6.90
2022-10-20T18:44:49.076Z,6.81
2022-10-20T18:47:18.369Z,6.80
2022-10-20T18:49:47.923Z,6.81
2022-10-20T18:52:17.330Z,6.77
2022-10-20T18:54:48.335Z,6.60
2022-10-20T18:57:17.562Z,6.74
2022-10-20T18:59:47.050Z,6.58
2022-10-20T19:02:16.445Z,6.69
2022-10-20T19:04:46.116Z,6.68
2022-10-20T19:07:18.135Z,6.64
2022-10-20T19:09:53.389Z,6.59
2022-10-20T19:12:24.851Z,6.64
2022-10-20T19:14:54.412Z,6.59
2022-10-20T19:17:24.011Z,6.52
2022-10-20T19:19:55.414Z,6.40
2022-10-20T19:22:28.400Z,6.32
2022-10-20T19:25:00.286Z,6.23
2022-10-20T19:27:29.585Z,6.09
2022-10-20T19:30:01.105Z,6.25
2022-10-20T19:32:30.347Z,6.30
2022-10-20T19:34:59.812Z,6.28
2022-10-20T19:37:29.141Z,6.21
2022-10-20T19:39:59.973Z,6.22
2022-10-20T19:42:29.332Z,6.16
2022-10-20T19:44:58.729Z,5.99
2022-10-20T19:47:28.388Z,6.01
2022-10-20T19:49:57.924Z,5.99
2022-10-20T19:52:27.145Z,6.00
2022-10-20T19:54:56.919Z,5.87
2022-10-20T19:57:27.565Z,5.93
2022-10-20T19:59:57.158Z,5.90
2022-10-20T20:02:26.327Z,5.91
2022-10-20T20:04:55.771Z,5.84
2022-10-20T20:07:25.205Z,5.90
2022-10-20T20:09:54.732Z,5.86
2022-10-20T20:12:23.995Z,5.93
2022-10-20T20:14:54.988Z,5.87
2022-10-20T20:17:24.265Z,5.78
2022-10-20T20:19:53.748Z,5.78
2022-10-20T20:22:23.004Z,5.74
2022-10-20T20:24:52.459Z,5.69
2022-10-20T20:27:21.640Z,5.61
2022-10-20T20:29:51.421Z,5.62
2022-10-20T20:32:22.106Z,5.57
2022-10-20T20:34:51.597Z,5.67
2022-10-20T20:37:21.139Z,5.56
2022-10-20T20:39:50.570Z,5.48
2022-10-20T20:42:19.977Z,5.49
2022-10-20T20:44:51.642Z,5.42
2022-10-20T20:47:22.289Z,5.56
2022-10-20T20:49:51.855Z,5.51
2022-10-20T20:52:21.003Z,5.55
2022-10-20T20:54:50.678Z,5.48
2022-10-20T20:57:19.901Z,5.43
2022-10-20T20:59:50.403Z,5.50
2022-10-20T21:02:21.049Z,5.41
2022-10-20T21:04:50.578Z,5.27
2022-10-20T21:07:19.763Z,5.35
2022-10-20T21:09:49.705Z,5.45
2022-10-20T21:12:18.898Z,5.45
2022-10-20T21:14:49.819Z,5.46
2022-10-20T21:17:19.016Z,5.44
2022-10-20T21:19:49.804Z,5.46
2022-10-20T21:22:19.090Z,5.38
2022-10-20T21:24:48.633Z,5.11
2022-10-20T21:27:17.872Z,5.22
2022-10-20T21:29:48.653Z,5.15
2022-10-20T21:32:19.086Z,5.20
2022-10-20T21:34:49.917Z,5.22
2022-10-20T21:37:19.108Z,5.18
2022-10-20T21:39:48.662Z,5.20
2022-10-20T21:42:17.904Z,5.10
2022-10-20T21:44:47.342Z,5.02
2022-10-20T21:47:16.649Z,5.02
2022-10-20T21:49:46.153Z,5.11
2022-10-20T21:52:17.404Z,5.08
2022-10-20T21:54:46.993Z,4.98
2022-10-20T21:57:16.881Z,5.00
2022-10-20T21:59:50.523Z,5.03
2022-10-20T22:02:19.724Z,5.06
2022-10-20T22:04:49.198Z,5.00
2022-10-20T22:07:19.988Z,5.13
2022-10-20T22:09:49.948Z,5.15
2022-10-20T22:12:19.263Z,4.93
2022-10-20T22:14:48.971Z,4.91
2022-10-20T22:17:18.362Z,4.93
2022-10-20T22:19:49.865Z,4.95
2022-10-20T22:22:20.558Z,5.07
2022-10-20T22:24:50.091Z,5.01
2022-10-20T22:27:31.454Z,4.79
2022-10-20T22:30:10.207Z,4.67
2022-10-20T22:32:39.858Z,4.74
2022-10-20T22:35:10.377Z,4.87
2022-10-20T22:37:41.261Z,4.94
2022-10-20T22:40:11.764Z,5.00
2022-10-20T22:42:41.388Z,5.10
2022-10-20T22:45:12.154Z,5.35
2022-10-20T22:47:41.388Z,5.24
2022-10-20T22:50:10.973Z,5.17
2022-10-20T22:52:41.626Z,5.35
2022-10-20T22:55:11.200Z,5.27
2022-10-20T22:57:40.447Z,5.14
2022-10-20T23:00:12.051Z,5.34
2022-10-20T23:02:41.386Z,5.24
2022-10-20T23:05:11.491Z,5.21
2022-10-20T23:07:42.231Z,5.27
2022-10-20T23:10:12.004Z,5.20
2022-10-20T23:12:41.266Z,5.38
2022-10-20T23:15:11.504Z,5.50
2022-10-20T23:17:40.895Z,5.45
2022-10-20T23:20:11.558Z,5.48
2022-10-20T23:22:42.386Z,5.46
2022-10-20T23:25:12.090Z,5.47
2022-10-20T23:27:41.348Z,5.78
2022-10-20T23:30:11.550Z,5.85
2022-10-20T23:32:40.793Z,5.68
2022-10-20T23:35:10.832Z,5.67
2022-10-20T23:37:41.623Z,5.59
2022-10-20T23:40:12.315Z,5.64
2022-10-20T23:42:41.534Z,5.70
2022-10-20T23:45:11.996Z,5.69
2022-10-20T23:47:41.311Z,5.51
2022-10-20T23:50:11.207Z,5.66
2022-10-20T23:52:41.938Z,5.69
2022-10-20T23:55:14.681Z,5.59
2022-10-20T23:57:44.877Z,5.69
